Time;durP1;ratioP1;P1;durP2;ratioP2;P2;SDS_P1;SDS_P2;PMS_P1;PMS_P2;Temp;Humidity;BMP_temperature;BMP_pressure;BME280_temperature;BME280_humidity;BME280_pressure;Samples;Min_cycle;Max_cycle;Signal;HPM_P1;HPM_P2
2023/02/16 00:00:20;;;;;;;2.30;1.10;;;;;;;-1.41;60.55;100146.95;77956;1301;3026256;-61
2023/02/16 00:02:48;;;;;;;2.60;1.10;;;;;;;-1.41;60.75;100152.95;77968;1301;3051512;-60
2023/02/16 00:05:29;;;;;;;2.40;1.30;;;;;;;-1.43;60.68;100155.36;79196;1300;3013184;-61
2023/02/16 00:08:04;;;;;;;4.00;1.60;;;;;;;-1.65;61.41;100157.77;77947;1299;3053480;-60
2023/02/16 00:10:33;;;;;;;2.50;1.10;;;;;;;-1.76;61.82;100163.95;79221;1299;3013197;-60
2023/02/16 00:15:48;;;;;;;4.40;1.20;;;;;;;-1.85;62.18;100167.71;78178;1301;3052383;-61
2023/02/16 00:18:17;;;;;;;3.10;1.50;;;;;;;-1.98;62.60;100165.80;79290;1298;3014446;-60
2023/02/16 00:20:44;;;;;;;2.30;1.40;;;;;;;-1.80;62.27;100167.72;79270;1298;3011614;-60
2023/02/16 00:23:13;;;;;;;4.10;1.70;;;;;;;-1.85;62.33;100164.98;77966;1300;3049247;-60
2023/02/16 00:25:41;;;;;;;3.10;1.70;;;;;;;-1.99;63.08;100174.05;79167;1299;3013742;-59
2023/02/16 00:28:16;;;;;;;3.30;1.50;;;;;;;-2.06;63.52;100173.52;79131;1301;3011617;-59
2023/02/16 00:30:46;;;;;;;4.20;1.90;;;;;;;-2.13;64.03;100173.51;77942;1301;3051353;-61
2023/02/16 00:33:14;;;;;;;3.00;1.90;;;;;;;-2.30;64.83;100170.88;79257;1299;3011832;-60
2023/02/16 00:35:43;;;;;;;3.40;2.10;;;;;;;-2.26;65.02;100169.36;78710;1298;3011655;-60
2023/02/16 00:38:12;;;;;;;4.10;2.00;;;;;;;-2.19;64.89;100176.06;79181;1299;3012981;-60
2023/02/16 00:40:38;;;;;;;5.20;2.40;;;;;;;-2.24;64.97;100175.17;79149;1298;3011722;-60
2023/02/16 00:43:12;;;;;;;4.20;2.10;;;;;;;-2.27;65.39;100173.98;77938;1301;3051263;-60
2023/02/16 00:45:39;;;;;;;11.20;2.30;;;;;;;-2.24;65.45;100173.98;79141;1305;3012964;-62
2023/02/16 00:48:07;;;;;;;5.60;2.40;;;;;;;-2.32;65.41;100174.81;77987;1301;3053047;-60
2023/02/16 00:50:34;;;;;;;8.10;2.10;;;;;;;-2.48;66.18;100174.08;79356;1301;3013539;-60
2023/02/16 00:53:01;;;;;;;5.00;2.00;;;;;;;-2.49;66.43;100169.27;79122;1298;3011622;-60
2023/02/16 00:55:32;;;;;;;5.00;2.20;;;;;;;-2.60;66.43;100173.17;78000;1301;3050344;-61
2023/02/16 00:58:04;;;;;;;5.00;2.20;;;;;;;-2.61;66.67;100172.48;79286;1301;3012174;-60
2023/02/16 01:00:37;;;;;;;3.40;1.70;;;;;;;-2.59;66.97;100168.72;77965;1304;3050682;-60
2023/02/16 01:03:20;;;;;;;4.30;2.20;;;;;;;-2.69;67.14;100171.41;79193;1299;3011853;-60
2023/02/16 01:05:48;;;;;;;4.40;2.40;;;;;;;-2.67;67.30;100169.20;77991;1301;3052105;-60
2023/02/16 01:13:41;;;;;;;4.00;1.80;;;;;;;-2.83;67.61;100171.69;79010;1300;3013723;-60
2023/02/16 01:16:11;;;;;;;4.70;1.70;;;;;;;-2.75;67.20;100173.79;77960;1301;3053851;-61
2023/02/16 01:18:38;;;;;;;3.30;2.20;;;;;;;-2.74;67.48;100170.70;79244;1301;3011726;-61
2023/02/16 01:21:07;;;;;;;3.60;1.70;;;;;;;-2.66;67.12;100169.54;78667;1301;3011671;-60
2023/02/16 01:23:33;;;;;;;5.90;1.80;;;;;;;-2.71;67.26;100170.54;79150;1301;3013458;-60
2023/02/16 01:26:02;;;;;;;3.60;1.70;;;;;;;-2.83;67.61;100168.42;79204;1301;3011495;-61
2023/02/16 01:28:33;;;;;;;5.20;1.60;;;;;;;-2.89;68.21;100165.15;78019;1298;3056707;-60
2023/02/16 01:30:59;;;;;;;5.80;1.80;;;;;;;-2.86;67.99;100163.61;79197;1298;3011585;-60
2023/02/16 01:33:26;;;;;;;4.70;1.80;;;;;;;-2.84;68.06;100165.17;79264;1299;3013073;-61
2023/02/16 01:35:55;;;;;;;3.80;2.10;;;;;;;-2.85;68.27;100169.61;77935;1301;3053363;-60
2023/02/16 01:38:24;;;;;;;4.50;1.70;;;;;;;-2.84;68.33;100167.55;79182;1300;3013717;-61
2023/02/16 01:41:21;;;;;;;6.10;2.10;;;;;;;-2.92;68.32;100166.84;78695;1296;3011962;-60
2023/02/16 01:44:02;;;;;;;4.30;2.10;;;;;;;-2.91;68.39;100165.65;77946;1301;3050763;-61
2023/02/16 01:46:53;;;;;;;5.10;2.20;;;;;;;-2.90;68.43;100173.55;77907;1301;3056785;-61
2023/02/16 01:49:22;;;;;;;5.30;2.70;;;;;;;-3.02;68.66;100174.84;77951;1301;3049570;-60
2023/02/16 01:51:51;;;;;;;6.00;2.10;;;;;;;-2.98;68.69;100173.83;79165;1300;3013168;-60
2023/02/16 01:54:40;;;;;;;3.50;1.70;;;;;;;-3.01;68.64;100173.48;79268;1301;3013289;-60
2023/02/16 01:57:27;;;;;;;4.40;1.90;;;;;;;-3.08;68.93;100175.14;78123;1298;3051923;-60
2023/02/16 01:59:55;;;;;;;4.00;2.10;;;;;;;-3.00;68.67;100177.07;77981;1298;3070629;-60
2023/02/16 02:02:27;;;;;;;5.30;2.40;;;;;;;-3.09;68.82;100178.05;79221;1296;3013471;-60
2023/02/16 02:08:14;;;;;;;5.30;2.00;;;;;;;-3.30;69.58;100188.53;78015;1301;3053069;-61
2023/02/16 02:11:01;;;;;;;6.40;2.20;;;;;;;-3.44;70.28;100191.00;77979;1301;3049789;-61
2023/02/16 02:13:39;;;;;;;5.20;2.70;;;;;;;-3.41;70.34;100194.78;78020;1301;3053245;-61
2023/02/16 02:16:08;;;;;;;5.30;2.90;;;;;;;-3.48;70.50;100194.05;78007;1300;3053242;-60
2023/02/16 02:18:35;;;;;;;5.50;3.60;;;;;;;-3.48;70.76;100200.21;79349;1301;3018427;-60
2023/02/16 02:24:21;;;;;;;4.40;2.30;;;;;;;-3.44;70.47;100193.90;78054;1300;3049412;-61
2023/02/16 02:27:05;;;;;;;5.60;3.10;;;;;;;-3.43;70.77;100201.45;77973;1301;3053833;-60
2023/02/16 02:29:44;;;;;;;5.50;2.50;;;;;;;-3.44;70.61;100200.77;78029;1301;3051444;-60
2023/02/16 02:32:24;;;;;;;6.10;2.80;;;;;;;-3.54;70.77;100202.23;77986;1301;3051773;-60
2023/02/16 02:34:57;;;;;;;6.40;2.60;;;;;;;-3.50;70.85;100200.19;77993;1300;3051935;-60
2023/02/16 02:37:46;;;;;;;4.80;2.50;;;;;;;-3.51;70.92;100202.92;79141;1301;3011996;-60
2023/02/16 02:40:37;;;;;;;4.00;2.60;;;;;;;-3.58;70.94;100209.55;77991;1301;3051285;-60
2023/02/16 02:43:39;;;;;;;4.40;2.50;;;;;;;-3.53;71.09;100207.20;78011;1299;3056855;-61
2023/02/16 02:46:15;;;;;;;3.30;2.20;;;;;;;-3.59;70.95;100208.69;77998;1301;3050079;-60
2023/02/16 02:48:43;;;;;;;4.30;2.60;;;;;;;-3.61;71.18;100207.13;77966;1300;3053345;-60
2023/02/16 02:51:29;;;;;;;6.10;3.00;;;;;;;-3.66;71.46;100209.98;79246;1301;3011456;-60
2023/02/16 03:00:42;;;;;;;3.70;2.10;;;;;;;-3.90;72.46;100215.92;78035;1300;3050977;-60
2023/02/16 03:03:29;;;;;;;5.40;2.40;;;;;;;-3.98;73.02;100213.27;77959;1301;3057047;-60
2023/02/16 03:06:09;;;;;;;3.90;1.60;;;;;;;-4.00;73.00;100214.96;78003;1299;3048385;-61
2023/02/16 03:08:39;;;;;;;3.50;1.80;;;;;;;-4.05;73.09;100216.10;78019;1298;3053602;-61
2023/02/16 03:14:01;;;;;;;7.40;2.40;;;;;;;-4.15;73.22;100211.38;77994;1300;3053472;-60
2023/02/16 03:16:38;;;;;;;5.10;2.20;;;;;;;-4.18;73.24;100213.40;79283;1299;3011526;-61
2023/02/16 03:30:17;;;;;;;4.70;2.20;;;;;;;-4.31;73.87;100221.63;77965;1299;3053880;-60
2023/02/16 03:32:43;;;;;;;6.20;2.10;;;;;;;-4.32;73.97;100218.21;79265;1301;3013573;-60
2023/02/16 03:35:11;;;;;;;8.90;2.70;;;;;;;-4.31;73.99;100220.95;79191;1301;3011889;-60
2023/02/16 03:37:41;;;;;;;8.70;2.70;;;;;;;-4.25;73.74;100212.98;78005;1301;3069482;-60
2023/02/16 03:40:29;;;;;;;11.60;3.20;;;;;;;-4.24;73.66;100211.79;79353;1299;3013828;-60
2023/02/16 03:43:02;;;;;;;6.80;2.90;;;;;;;-4.28;73.91;100215.17;78014;1300;3048674;-61
2023/02/16 03:45:29;;;;;;;8.90;3.90;;;;;;;-4.35;73.94;100215.93;79212;1299;3011866;-61
2023/02/16 03:47:57;;;;;;;6.50;3.20;;;;;;;-4.41;74.33;100215.70;77950;1300;3051391;-61
2023/02/16 03:50:25;;;;;;;9.00;3.10;;;;;;;-4.46;74.84;100219.05;79261;1309;3012936;-60
2023/02/16 03:53:05;;;;;;;7.80;2.80;;;;;;;-4.51;75.07;100220.87;79315;1296;3013073;-60
2023/02/16 03:55:38;;;;;;;5.60;2.40;;;;;;;-4.53;75.27;100220.34;78118;1301;3053148;-60
2023/02/16 03:58:05;;;;;;;12.40;3.30;;;;;;;-4.52;75.11;100220.52;79225;1301;3011619;-60
2023/02/16 04:00:34;;;;;;;6.80;3.20;;;;;;;-4.51;74.65;100227.55;78073;1300;3050275;-61
2023/02/16 04:03:51;;;;;;;7.20;3.40;;;;;;;-4.54;75.08;100227.16;80022;1299;3013093;-60
2023/02/16 04:06:18;;;;;;;7.60;3.70;;;;;;;-4.58;75.12;100236.16;78958;1305;3012541;-60
2023/02/16 04:08:45;;;;;;;6.80;3.00;;;;;;;-4.51;75.15;100242.23;78948;1304;3011694;-60
2023/02/16 04:14:01;;;;;;;10.10;3.50;;;;;;;-4.54;75.14;100251.11;77781;1304;3068724;-60
2023/02/16 04:16:33;;;;;;;6.50;3.50;;;;;;;-4.56;74.85;100250.90;77698;1299;3016177;-60
2023/02/16 04:19:01;;;;;;;8.90;2.60;;;;;;;-4.61;74.89;100255.11;77968;1304;3056374;-60
2023/02/16 04:21:27;;;;;;;6.00;3.40;;;;;;;-4.60;75.01;100260.09;79571;1297;3011902;-59
2023/02/16 04:23:54;;;;;;;4.30;2.90;;;;;;;-4.55;75.24;100267.50;79601;1296;3011523;-59
2023/02/16 04:26:23;;;;;;;5.60;3.40;;;;;;;-4.54;74.68;100265.46;78225;1298;3028334;-60
2023/02/16 04:28:49;;;;;;;5.00;2.50;;;;;;;-4.57;74.87;100270.55;79425;1298;3013306;-59
2023/02/16 04:31:16;;;;;;;6.60;3.20;;;;;;;-4.60;74.47;100266.42;79427;1298;3011935;-59
2023/02/16 04:33:44;;;;;;;9.60;4.70;;;;;;;-4.75;74.69;100270.14;78055;1299;3028969;-59
2023/02/16 04:36:11;;;;;;;7.80;3.30;;;;;;;-4.82;75.20;100272.60;79323;1298;3021282;-60
2023/02/16 04:38:38;;;;;;;4.60;2.70;;;;;;;-4.83;75.73;100272.23;79309;1299;3012782;-60
2023/02/16 04:41:06;;;;;;;8.80;2.70;;;;;;;-4.85;75.37;100274.61;78153;1308;3026508;-61
2023/02/16 04:43:33;;;;;;;7.10;3.00;;;;;;;-4.79;75.65;100271.95;79428;1298;3013337;-60
2023/02/16 04:45:59;;;;;;;8.90;3.00;;;;;;;-4.76;75.45;100275.25;79364;1308;3014059;-60
2023/02/16 04:48:27;;;;;;;6.20;3.10;;;;;;;-4.75;75.08;100275.94;78193;1298;3028655;-60
2023/02/16 04:50:54;;;;;;;6.30;2.90;;;;;;;-4.74;74.92;100274.41;79423;1295;3013318;-60
2023/02/16 04:53:20;;;;;;;8.90;3.20;;;;;;;-4.77;74.98;100280.87;79345;1295;3011674;-60
2023/02/16 04:55:48;;;;;;;7.40;2.70;;;;;;;-4.81;75.28;100276.89;78264;1298;3028348;-60
2023/02/16 04:58:15;;;;;;;9.70;3.30;;;;;;;-4.77;75.09;100278.66;79374;1298;3018553;-60
2023/02/16 05:00:42;;;;;;;8.80;3.60;;;;;;;-4.71;74.97;100278.40;79359;1298;3013738;-60
2023/02/16 05:03:10;;;;;;;6.70;3.10;;;;;;;-4.62;74.29;100271.69;78148;1298;3026000;-60
2023/02/16 05:05:37;;;;;;;5.80;3.30;;;;;;;-4.65;74.36;100269.93;79440;1295;3013512;-61
2023/02/16 05:08:03;;;;;;;10.60;3.10;;;;;;;-4.55;73.98;100270.77;79433;1298;3011473;-59
2023/02/16 05:10:31;;;;;;;6.70;3.40;;;;;;;-4.55;73.96;100272.29;78260;1298;3028150;-60
2023/02/16 05:15:45;;;;;;;7.60;2.90;;;;;;;-4.53;73.80;100276.59;78119;1295;3050843;-60
2023/02/16 05:18:12;;;;;;;5.70;2.70;;;;;;;-4.43;73.56;100277.93;79260;1295;3012908;-60
2023/02/16 05:23:26;;;;;;;5.60;3.30;;;;;;;-4.51;73.32;100279.70;78014;1301;3050254;-59
2023/02/16 05:25:53;;;;;;;7.70;3.30;;;;;;;-4.51;73.05;100283.12;79364;1299;3013737;-59
2023/02/16 05:28:20;;;;;;;10.00;3.10;;;;;;;-4.47;73.34;100283.67;79291;1301;3011744;-59
2023/02/16 05:30:48;;;;;;;7.30;3.50;;;;;;;-4.47;73.13;100284.39;78061;1301;3051373;-60
2023/02/16 05:33:15;;;;;;;6.40;2.90;;;;;;;-4.43;72.62;100282.38;79323;1302;3013487;-59
2023/02/16 05:35:42;;;;;;;6.30;3.20;;;;;;;-4.33;72.83;100286.61;79271;1301;3011455;-59
2023/02/16 05:38:10;;;;;;;5.60;3.00;;;;;;;-4.42;72.77;100282.22;78207;1300;3049939;-63
2023/02/16 05:40:37;;;;;;;6.80;3.30;;;;;;;-4.42;72.53;100280.67;79427;1298;3013147;-60
2023/02/16 05:43:04;;;;;;;8.70;4.20;;;;;;;-4.35;72.62;100287.61;79361;1301;3011851;-59
2023/02/16 05:45:33;;;;;;;8.50;4.10;;;;;;;-4.38;72.29;100291.00;78180;1296;3050336;-60
2023/02/16 05:47:59;;;;;;;8.30;3.70;;;;;;;-4.39;72.45;100290.47;79294;1300;3012742;-58
2023/02/16 05:50:26;;;;;;;7.30;3.50;;;;;;;-4.24;72.22;100295.97;79324;1298;3011868;-60
2023/02/16 05:52:54;;;;;;;8.30;3.60;;;;;;;-4.18;72.13;100297.93;78050;1299;3028501;-60
2023/02/16 05:55:21;;;;;;;9.20;4.20;;;;;;;-4.27;71.63;100298.33;79308;1301;3013150;-59
2023/02/16 05:57:48;;;;;;;6.80;3.50;;;;;;;-4.23;71.82;100298.03;79317;1297;3012018;-60
2023/02/16 06:00:17;;;;;;;11.30;3.90;;;;;;;-4.18;71.50;100306.65;78074;1308;3049619;-60
2023/02/16 06:02:45;;;;;;;8.40;3.30;;;;;;;-4.04;71.37;100302.54;79295;1296;3013700;-60
2023/02/16 06:05:11;;;;;;;9.10;3.90;;;;;;;-4.01;71.12;100306.01;79387;1298;3013643;-61
2023/02/16 06:07:39;;;;;;;11.50;4.70;;;;;;;-3.90;71.36;100308.19;78079;1302;3051263;-59
2023/02/16 06:10:08;;;;;;;7.90;3.90;;;;;;;-3.90;70.66;100302.39;79319;1299;3013432;-60
2023/02/16 06:12:35;;;;;;;8.20;3.60;;;;;;;-3.88;70.31;100301.03;79282;1301;3013551;-60
2023/02/16 06:15:03;;;;;;;8.80;3.50;;;;;;;-3.96;70.49;100304.02;78054;1301;3050890;-60
2023/02/16 06:17:30;;;;;;;7.90;4.20;;;;;;;-3.95;70.26;100298.38;79362;1301;3012947;-60
2023/02/16 06:20:01;;;;;;;5.80;3.20;;;;;;;-3.82;70.01;100303.64;78149;1300;3053032;-60
2023/02/16 06:22:27;;;;;;;10.10;4.20;;;;;;;-3.81;69.92;100306.23;79294;1301;3013691;-60
2023/02/16 06:24:54;;;;;;;9.50;4.50;;;;;;;-3.78;69.92;100312.78;79264;1300;3011811;-60
2023/02/16 06:27:22;;;;;;;10.10;4.40;;;;;;;-3.61;69.97;100313.99;78097;1301;3028346;-60
2023/02/16 06:29:49;;;;;;;9.80;4.50;;;;;;;-3.55;69.48;100313.36;79306;1294;3013545;-60
2023/02/16 06:32:17;;;;;;;10.60;4.70;;;;;;;-3.49;68.91;100312.91;79213;1299;3011656;-59
2023/02/16 06:34:45;;;;;;;10.50;4.40;;;;;;;-3.51;68.86;100315.46;78156;1294;3053862;-60
2023/02/16 06:37:11;;;;;;;11.20;4.70;;;;;;;-3.44;68.96;100316.05;79350;1301;3019059;-60
2023/02/16 06:39:39;;;;;;;10.50;4.20;;;;;;;-3.48;69.12;100313.44;79374;1301;3011942;-60
2023/02/16 06:42:06;;;;;;;8.60;4.60;;;;;;;-3.44;69.02;100314.17;78092;1295;3069668;-62
2023/02/16 06:44:33;;;;;;;8.80;5.10;;;;;;;-3.42;68.76;100313.50;79294;1300;3018400;-60
2023/02/16 06:47:02;;;;;;;8.30;4.10;;;;;;;-3.44;68.66;100315.55;79364;1295;3013640;-60
2023/02/16 06:49:30;;;;;;;9.10;3.50;;;;;;;-3.52;68.61;100314.08;78312;1298;3053965;-60
2023/02/16 06:51:57;;;;;;;9.10;4.30;;;;;;;-3.41;68.97;100319.17;79573;1308;3012997;-59
2023/02/16 06:54:23;;;;;;;8.30;4.10;;;;;;;-3.43;68.54;100318.29;79544;1298;3011727;-60
2023/02/16 06:56:51;;;;;;;9.80;4.60;;;;;;;-3.42;68.62;100315.74;78291;1295;3029215;-61
2023/02/16 06:59:18;;;;;;;8.20;4.20;;;;;;;-3.28;68.44;100313.63;79413;1294;3013240;-60
2023/02/16 07:01:45;;;;;;;11.30;4.50;;;;;;;-3.13;68.37;100309.98;79388;1295;3011648;-60
2023/02/16 07:04:13;;;;;;;9.30;4.40;;;;;;;-3.13;67.86;100311.02;78097;1301;3027708;-61
2023/02/16 07:06:40;;;;;;;8.70;4.60;;;;;;;-2.98;67.50;100310.48;79329;1301;3013623;-60
2023/02/16 07:09:07;;;;;;;7.50;4.30;;;;;;;-3.03;67.69;100312.66;79297;1301;3013279;-60
2023/02/16 07:11:35;;;;;;;10.40;5.00;;;;;;;-3.13;67.82;100313.25;78131;1296;3068421;-60
2023/02/16 07:14:05;;;;;;;9.00;4.10;;;;;;;-3.08;68.05;100313.98;79272;1301;3011699;-60
2023/02/16 07:16:33;;;;;;;11.00;4.90;;;;;;;-2.92;67.58;100310.68;78112;1301;3028446;-60
2023/02/16 07:18:59;;;;;;;9.30;4.80;;;;;;;-2.75;67.33;100308.05;79289;1296;3018152;-60
2023/02/16 07:21:26;;;;;;;10.70;5.00;;;;;;;-2.71;67.17;100307.41;79309;1295;3011940;-61
2023/02/16 07:23:54;;;;;;;9.80;4.40;;;;;;;-2.58;67.21;100301.66;78108;1300;3028581;-60
2023/02/16 07:26:24;;;;;;;9.20;4.80;;;;;;;-2.63;66.89;100303.52;79440;1302;3012894;-62
2023/02/16 07:28:52;;;;;;;10.40;4.00;;;;;;;-2.55;66.89;100304.42;78894;1295;3011591;-60
2023/02/16 07:31:19;;;;;;;8.10;4.30;;;;;;;-2.58;66.69;100303.02;79612;1295;3013003;-60
2023/02/16 07:33:46;;;;;;;7.50;4.30;;;;;;;-2.67;67.23;100310.69;79465;1298;3011682;-60
2023/02/16 07:36:14;;;;;;;10.50;4.50;;;;;;;-2.50;67.26;100301.38;78174;1298;3028156;-60
2023/02/16 07:38:42;;;;;;;11.60;5.20;;;;;;;-2.28;66.49;100300.80;79380;1298;3013675;-60
2023/02/16 07:41:08;;;;;;;12.30;4.90;;;;;;;-2.37;66.23;100301.10;79300;1298;3011655;-60
2023/02/16 07:43:38;;;;;;;11.50;4.90;;;;;;;-2.28;66.25;100300.46;78243;1301;3070744;-60
2023/02/16 07:46:04;;;;;;;12.30;4.40;;;;;;;-2.23;66.06;100296.88;79660;1298;3013420;-60
2023/02/16 07:48:36;;;;;;;16.90;5.30;;;;;;;-2.15;65.91;100295.38;79113;1295;3013205;-60
2023/02/16 07:51:04;;;;;;;9.80;5.10;;;;;;;-1.93;66.00;100288.77;79386;1295;3013258;-60
2023/02/16 07:53:30;;;;;;;8.00;4.00;;;;;;;-1.85;64.88;100291.88;79435;1298;3011572;-60
2023/02/16 07:55:59;;;;;;;11.10;4.80;;;;;;;-1.89;64.95;100287.06;78144;1298;3028886;-60
2023/02/16 07:58:28;;;;;;;10.70;5.20;;;;;;;-1.93;65.11;100290.65;79535;1298;3013724;-61
2023/02/16 08:01:10;;;;;;;12.30;5.10;;;;;;;-1.99;65.31;100290.46;79453;1295;3011517;-59
2023/02/16 08:03:39;;;;;;;10.40;5.40;;;;;;;-1.86;65.00;100287.25;78201;1298;3057786;-61
2023/02/16 08:06:06;;;;;;;11.70;5.00;;;;;;;-1.77;64.83;100282.98;79418;1298;3013438;-60
2023/02/16 08:08:33;;;;;;;14.70;5.60;;;;;;;-1.69;64.64;100283.17;79559;1295;3013006;-60
2023/02/16 08:11:09;;;;;;;11.20;4.60;;;;;;;-1.55;64.12;100283.71;78214;1298;3052070;-60
2023/02/16 08:13:39;;;;;;;7.80;4.30;;;;;;;-1.51;63.86;100283.04;78155;1298;3052271;-59
2023/02/16 08:16:08;;;;;;;9.40;4.70;;;;;;;-1.33;63.27;100282.55;79437;1298;3012885;-59
2023/02/16 08:18:34;;;;;;;11.10;4.30;;;;;;;-1.27;63.05;100287.20;79398;1295;3012950;-59
2023/02/16 08:21:13;;;;;;;10.60;4.70;;;;;;;-1.23;62.81;100290.80;78203;1298;3050178;-62
2023/02/16 08:23:46;;;;;;;9.70;4.60;;;;;;;-1.27;62.49;100284.10;78041;1301;3054284;-59
2023/02/16 08:26:15;;;;;;;11.50;4.60;;;;;;;-1.28;62.09;100285.30;79446;1298;3013051;-59
2023/02/16 08:28:45;;;;;;;7.50;4.50;;;;;;;-1.33;62.25;100288.05;78329;1298;3051234;-60
2023/02/16 08:31:13;;;;;;;10.80;5.60;;;;;;;-1.21;61.74;100286.16;79679;1298;3013408;-59
2023/02/16 08:33:40;;;;;;;11.90;4.10;;;;;;;-1.18;61.27;100283.06;79516;1295;3011558;-59
2023/02/16 08:36:17;;;;;;;7.80;4.00;;;;;;;-1.10;60.68;100282.55;78328;1298;3057766;-59
2023/02/16 08:38:49;;;;;;;11.60;4.30;;;;;;;-0.97;59.82;100278.09;78328;1298;3049826;-61
2023/02/16 08:41:17;;;;;;;9.30;3.60;;;;;;;-0.93;57.89;100280.48;79731;1295;3011859;-60
2023/02/16 08:43:46;;;;;;;8.00;3.60;;;;;;;-0.92;56.30;100277.40;78319;1295;3050045;-63
2023/02/16 08:46:14;;;;;;;9.30;3.70;;;;;;;-0.72;57.11;100275.13;79524;1295;3013640;-60
2023/02/16 08:48:44;;;;;;;8.10;3.50;;;;;;;-0.50;57.45;100283.53;78805;1300;3011813;-60
2023/02/16 08:51:16;;;;;;;8.40;3.60;;;;;;;-0.63;57.63;100283.21;79405;1298;3013714;-60
2023/02/16 08:53:45;;;;;;;7.00;3.00;;;;;;;-0.77;55.65;100288.74;78528;1298;3057359;-59
2023/02/16 08:56:13;;;;;;;5.40;3.20;;;;;;;-0.71;56.44;100284.25;79481;1298;3016141;-60
2023/02/16 08:58:43;;;;;;;6.80;2.90;;;;;;;-0.61;56.33;100291.46;79113;1298;3013580;-60
2023/02/16 09:01:10;;;;;;;6.20;3.10;;;;;;;-0.79;56.15;100287.35;79497;1298;3021109;-60
2023/02/16 09:03:40;;;;;;;6.40;3.50;;;;;;;-0.75;56.18;100279.78;79517;1298;3011547;-59
2023/02/16 09:06:09;;;;;;;7.90;3.00;;;;;;;-0.56;55.71;100279.59;78295;1298;3068414;-60
2023/02/16 09:08:36;;;;;;;5.10;3.00;;;;;;;-0.36;54.78;100284.70;79479;1294;3013487;-61
2023/02/16 09:11:14;;;;;;;9.20;3.10;;;;;;;-0.30;54.60;100273.66;79359;1295;3011578;-59
2023/02/16 09:13:43;;;;;;;6.00;3.30;;;;;;;-0.14;54.82;100278.95;78143;1295;3052961;-60
2023/02/16 09:16:11;;;;;;;7.80;3.50;;;;;;;-0.17;53.09;100289.46;79404;1298;3012897;-59
2023/02/16 09:18:44;;;;;;;11.80;3.30;;;;;;;-0.17;52.77;100286.36;78253;1296;3050366;-60
2023/02/16 09:21:14;;;;;;;6.20;3.00;;;;;;;0.03;53.00;100282.66;79401;1298;3013356;-60
2023/02/16 09:23:46;;;;;;;6.10;2.70;;;;;;;0.06;52.68;100282.30;78905;1294;3011674;-59
2023/02/16 09:26:17;;;;;;;3.90;2.10;;;;;;;-0.09;51.49;100284.27;79491;1295;3013061;-59
2023/02/16 09:28:45;;;;;;;3.90;2.30;;;;;;;-0.21;50.42;100289.30;78213;1295;3049359;-59
2023/02/16 09:31:24;;;;;;;3.50;2.00;;;;;;;0.10;50.67;100281.77;79573;1296;3013145;-60
2023/02/16 09:33:57;;;;;;;7.30;2.50;;;;;;;0.03;48.91;100272.32;78202;1298;3053269;-59
2023/02/16 09:36:23;;;;;;;3.60;2.30;;;;;;;0.32;49.12;100278.73;79371;1296;3011731;-60
2023/02/16 09:38:52;;;;;;;6.90;2.50;;;;;;;0.20;49.67;100277.42;78191;1298;3069016;-59
2023/02/16 09:41:22;;;;;;;5.50;2.40;;;;;;;0.09;49.29;100277.98;79541;1296;3016000;-60
2023/02/16 09:44:18;;;;;;;3.50;2.00;;;;;;;0.24;48.46;100273.60;78260;1298;3049335;-59
2023/02/16 09:46:47;;;;;;;3.60;1.90;;;;;;;0.35;48.71;100267.68;78203;1298;3053025;-60
2023/02/16 09:49:23;;;;;;;4.00;1.80;;;;;;;0.41;48.24;100267.48;79441;1298;3013022;-60
2023/02/16 09:51:58;;;;;;;5.30;1.90;;;;;;;0.44;47.53;100265.55;78066;1298;3052093;-61
2023/02/16 09:54:38;;;;;;;3.20;1.70;;;;;;;0.16;46.71;100267.09;78802;1301;3012763;-59
2023/02/16 09:57:27;;;;;;;3.30;1.50;;;;;;;0.09;46.11;100267.30;78218;1295;3069549;-59
2023/02/16 10:00:27;;;;;;;2.60;1.30;;;;;;;0.32;46.12;100265.63;78087;1298;3052785;-59
2023/02/16 10:03:01;;;;;;;4.70;1.60;;;;;;;0.24;46.06;100269.12;78000;1298;3057005;-59
2023/02/16 10:05:45;;;;;;;4.10;1.60;;;;;;;0.30;46.07;100261.85;79481;1298;3013177;-60
2023/02/16 10:08:15;;;;;;;3.80;1.60;;;;;;;0.43;46.39;100267.98;78195;1298;3053377;-60
2023/02/16 10:10:52;;;;;;;2.20;1.30;;;;;;;0.45;45.67;100266.25;79487;1298;3011771;-59
2023/02/16 10:13:29;;;;;;;3.00;1.70;;;;;;;0.37;45.10;100266.64;78290;1298;3052713;-60
2023/02/16 10:15:56;;;;;;;4.60;1.90;;;;;;;0.16;45.70;100264.16;79447;1296;3013653;-60
2023/02/16 10:18:29;;;;;;;4.00;1.70;;;;;;;0.40;45.80;100258.69;78216;1300;3068598;-59
2023/02/16 10:20:57;;;;;;;4.30;1.70;;;;;;;0.49;44.89;100252.59;79316;1301;3011593;-59
2023/02/16 10:23:46;;;;;;;3.30;1.70;;;;;;;0.38;45.26;100248.70;78063;1300;3057305;-59
2023/02/16 10:26:23;;;;;;;3.00;1.60;;;;;;;0.15;45.28;100262.80;78040;1295;3049744;-59
2023/02/16 10:28:54;;;;;;;3.70;1.90;;;;;;;0.61;45.27;100253.89;78009;1301;3053678;-59
2023/02/16 10:31:40;;;;;;;4.00;1.80;;;;;;;1.01;44.97;100253.92;79250;1300;3013668;-59
2023/02/16 10:34:27;;;;;;;3.20;1.70;;;;;;;1.14;44.12;100256.20;78064;1300;3053362;-59
2023/02/16 10:37:13;;;;;;;3.20;1.60;;;;;;;0.95;43.93;100256.04;78151;1299;3052868;-60
2023/02/16 10:40:07;;;;;;;2.30;1.30;;;;;;;0.79;44.58;100254.79;78092;1300;3071377;-59
2023/02/16 10:42:42;;;;;;;6.10;1.90;;;;;;;1.28;44.13;100248.48;78038;1300;3052448;-59
2023/02/16 10:45:14;;;;;;;3.60;1.80;;;;;;;1.57;44.26;100249.91;78729;1300;3013138;-59
2023/02/16 10:47:42;;;;;;;4.70;1.90;;;;;;;1.88;44.01;100246.26;79667;1294;3012153;-59
2023/02/16 10:50:51;;;;;;;6.40;2.30;;;;;;;2.11;43.53;100242.17;78436;1298;3049279;-60
2023/02/16 10:53:23;;;;;;;6.00;2.20;;;;;;;2.12;43.95;100236.96;78115;1298;3053466;-59
2023/02/16 10:55:50;;;;;;;5.10;2.70;;;;;;;1.94;44.96;100237.20;79554;1295;3013568;-60
2023/02/16 10:58:19;;;;;;;5.80;2.70;;;;;;;1.46;45.73;100244.15;78185;1298;3029086;-60
2023/02/16 11:01:13;;;;;;;8.40;2.30;;;;;;;1.29;46.63;100242.44;79366;1301;3013747;-60
2023/02/16 11:03:48;;;;;;;3.60;2.30;;;;;;;1.47;46.08;100243.27;78146;1295;3051721;-59
2023/02/16 11:06:24;;;;;;;5.80;2.00;;;;;;;1.79;45.09;100237.56;78717;1294;3012865;-60
2023/02/16 11:08:55;;;;;;;4.40;2.10;;;;;;;1.96;44.83;100230.60;79310;1295;3011375;-60
2023/02/16 11:11:24;;;;;;;3.20;1.50;;;;;;;2.06;44.91;100234.96;78218;1298;3049377;-60
2023/02/16 11:14:05;;;;;;;4.50;2.00;;;;;;;1.74;45.56;100236.91;79341;1295;3013505;-61
2023/02/16 11:16:33;;;;;;;5.30;2.50;;;;;;;0.99;46.94;100237.71;78195;1298;3051947;-60
2023/02/16 11:19:37;;;;;;;5.50;2.80;;;;;;;0.98;47.29;100241.88;79310;1298;3016197;-59
2023/02/16 11:22:06;;;;;;;5.20;2.20;;;;;;;1.22;46.85;100237.31;77576;1307;3069791;-59
2023/02/16 11:24:36;;;;;;;6.60;2.40;;;;;;;1.31;46.32;100241.03;79423;1295;3011657;-60
2023/02/16 11:27:21;;;;;;;5.30;2.30;;;;;;;1.56;46.27;100235.41;78104;1298;3056155;-60
2023/02/16 11:29:49;;;;;;;6.90;2.30;;;;;;;1.77;45.45;100236.38;78260;1298;3049110;-59
2023/02/16 11:32:17;;;;;;;5.60;2.50;;;;;;;1.77;45.28;100240.00;79412;1296;3019214;-59
2023/02/16 11:34:53;;;;;;;4.40;2.50;;;;;;;1.87;45.62;100239.89;79310;1301;3011513;-59
2023/02/16 11:37:30;;;;;;;4.20;2.50;;;;;;;1.96;45.40;100239.08;78126;1301;3052600;-59
2023/02/16 11:40:08;;;;;;;5.60;2.40;;;;;;;2.02;45.15;100238.66;78035;1295;3069653;-59
2023/02/16 11:42:39;;;;;;;5.80;2.50;;;;;;;2.06;45.21;100238.60;78300;1295;3050566;-59
2023/02/16 11:45:06;;;;;;;6.50;2.30;;;;;;;1.99;46.00;100236.09;79454;1298;3013100;-59
2023/02/16 11:47:38;;;;;;;4.60;1.90;;;;;;;1.66;47.09;100235.81;78003;1300;3049440;-58
2023/02/16 11:50:19;;;;;;;3.90;2.40;;;;;;;1.43;47.72;100238.66;79421;1295;3011847;-59
2023/02/16 11:52:49;;;;;;;5.40;2.70;;;;;;;1.50;47.98;100236.34;78118;1295;3049851;-60
2023/02/16 11:55:25;;;;;;;5.30;2.70;;;;;;;1.98;47.07;100231.80;79574;1295;3011634;-59
2023/02/16 11:57:55;;;;;;;5.60;2.70;;;;;;;1.83;46.70;100234.91;78010;1301;3052518;-59
2023/02/16 12:00:23;;;;;;;14.60;2.60;;;;;;;1.69;46.69;100233.52;79336;1295;3013672;-59
2023/02/16 12:03:05;;;;;;;5.70;2.80;;;;;;;1.82;46.36;100240.13;78718;1295;3011893;-59
2023/02/16 12:05:42;;;;;;;3.50;2.20;;;;;;;1.80;45.50;100237.55;78007;1300;3058907;-59
2023/02/16 12:08:51;;;;;;;4.20;2.10;;;;;;;1.83;45.21;100233.36;79233;1294;3011637;-59
2023/02/16 12:11:24;;;;;;;6.60;2.20;;;;;;;1.09;46.62;100230.38;77683;1305;3050536;-59
2023/02/16 12:14:23;;;;;;;4.80;2.10;;;;;;;1.29;46.79;100230.36;79356;1295;3011935;-59